createdAt,value
2022-11-30T00:00:52.036Z,100211.56
2022-11-30T00:01:54.927Z,100209.88
2022-11-30T00:02:57.860Z,100209.09
2022-11-30T00:03:59.736Z,100169.69
2022-11-30T00:05:03.126Z,100174.88
2022-11-30T00:06:23.751Z,100196.41
2022-11-30T00:07:25.486Z,100202.16
2022-11-30T00:08:29.638Z,100175.69
2022-11-30T00:09:32.328Z,100194.47
2022-11-30T00:10:34.180Z,100171.41
2022-11-30T00:11:37.148Z,100198.00
2022-11-30T00:12:44.330Z,100209.09
2022-11-30T00:13:50.338Z,100209.16
2022-11-30T00:14:53.683Z,100214.34
2022-11-30T00:16:04.165Z,100215.25
2022-11-30T00:17:07.292Z,100212.66
2022-11-30T00:18:09.924Z,100199.78
2022-11-30T00:19:12.241Z,100199.09
2022-11-30T00:20:15.164Z,100179.44
2022-11-30T00:21:16.992Z,100203.31
2022-11-30T00:22:19.293Z,100203.31
2022-11-30T00:23:21.081Z,100201.59
2022-11-30T00:24:23.943Z,100195.53
2022-11-30T00:25:29.152Z,100200.63
2022-11-30T00:26:32.215Z,100180.94
2022-11-30T00:27:36.457Z,100199.84
2022-11-30T00:28:39.795Z,100161.25
2022-11-30T00:29:41.687Z,100205.03
2022-11-30T00:30:46.981Z,100217.09
2022-11-30T00:31:49.119Z,100199.00
2022-11-30T00:32:51.305Z,100197.31
2022-11-30T00:33:52.984Z,100162.31
2022-11-30T00:34:55.692Z,100200.09
2022-11-30T00:35:59.001Z,100164.06
2022-11-30T00:37:01.154Z,100203.47
2022-11-30T00:38:04.394Z,100213.06
2022-11-30T00:39:07.597Z,100197.50
2022-11-30T00:40:10.675Z,100207.84
2022-11-30T00:41:13.241Z,100212.16
2022-11-30T00:42:20.037Z,100205.28
2022-11-30T00:43:21.720Z,100204.47
2022-11-30T00:44:23.875Z,100187.31
2022-11-30T00:45:27.168Z,100183.94
2022-11-30T00:46:29.594Z,100201.84
2022-11-30T00:47:31.303Z,100207.13
2022-11-30T00:48:34.321Z,100197.66
2022-11-30T00:49:37.829Z,100200.31
2022-11-30T00:50:39.762Z,100203.72
2022-11-30T00:51:45.550Z,100229.75
2022-11-30T00:52:47.238Z,100202.91
2022-11-30T00:53:50.639Z,100208.00
2022-11-30T00:54:55.580Z,100207.22
2022-11-30T00:55:58.254Z,100215.84
2022-11-30T00:57:00.506Z,100213.22
2022-11-30T00:58:04.033Z,100188.44
2022-11-30T00:59:08.721Z,100205.50
2022-11-30T01:00:14.551Z,100220.06
2022-11-30T01:01:18.005Z,100218.31
2022-11-30T01:02:21.541Z,100196.84
2022-11-30T01:03:23.805Z,100213.13
2022-11-30T01:04:26.095Z,100206.25
2022-11-30T01:05:31.630Z,100219.13
2022-11-30T01:06:33.680Z,100211.47
2022-11-30T01:07:36.311Z,100211.50
2022-11-30T01:08:39.469Z,100209.00
2022-11-30T01:09:41.662Z,100217.50
2022-11-30T01:10:46.445Z,100219.13
2022-11-30T01:11:48.259Z,100214.03
2022-11-30T01:12:50.634Z,100182.38
2022-11-30T01:13:54.153Z,100226.91
2022-11-30T01:14:57.148Z,100227.75
2022-11-30T01:16:00.273Z,100224.28
2022-11-30T01:17:03.959Z,100206.25
2022-11-30T01:18:07.184Z,100231.22
2022-11-30T01:19:08.881Z,100219.22
2022-11-30T01:20:11.881Z,100214.84
2022-11-30T01:21:21.913Z,100225.09
2022-11-30T01:22:26.544Z,100223.38
2022-11-30T01:23:30.041Z,100217.38
2022-11-30T01:24:31.924Z,100229.47
2022-11-30T01:25:34.280Z,100222.56
2022-11-30T01:26:37.887Z,100230.25
2022-11-30T01:27:39.674Z,100229.34
2022-11-30T01:28:46.754Z,100223.31
2022-11-30T01:29:48.942Z,100219.88
2022-11-30T01:30:59.277Z,100227.66
2022-11-30T01:32:01.940Z,100223.28
2022-11-30T01:33:05.035Z,100206.22
2022-11-30T01:34:09.393Z,100227.66
2022-11-30T01:35:12.497Z,100220.78
2022-11-30T01:36:20.141Z,100205.50
2022-11-30T01:37:22.276Z,100209.06
2022-11-30T01:38:24.466Z,100217.53
2022-11-30T01:39:26.724Z,100230.44
2022-11-30T01:40:29.004Z,100215.94
2022-11-30T01:41:32.435Z,100213.34
2022-11-30T01:42:34.971Z,100233.91
2022-11-30T01:43:45.853Z,100221.00
2022-11-30T01:44:52.649Z,100222.59
2022-11-30T01:45:57.680Z,100227.75
2022-11-30T01:47:07.813Z,100232.03
2022-11-30T01:48:09.549Z,100223.47
2022-11-30T01:49:22.081Z,100229.44
2022-11-30T01:50:35.961Z,100232.91
2022-11-30T01:51:52.045Z,100227.75
2022-11-30T01:52:59.270Z,100232.84
2022-11-30T01:54:02.681Z,100231.16
2022-11-30T01:55:15.996Z,100243.16
2022-11-30T01:56:19.001Z,100241.56
2022-11-30T01:57:29.213Z,100235.50
2022-11-30T01:58:31.225Z,100232.94
2022-11-30T01:59:32.808Z,100231.25
2022-11-30T02:00:36.029Z,100236.38
2022-11-30T02:01:38.780Z,100237.16
2022-11-30T02:02:42.203Z,100232.84
2022-11-30T02:04:10.063Z,100218.28
2022-11-30T02:05:13.671Z,100244.06
2022-11-30T02:06:15.814Z,100240.56
2022-11-30T02:07:17.878Z,100232.91
2022-11-30T02:08:20.749Z,100246.63
2022-11-30T02:09:23.959Z,100236.28
2022-11-30T02:10:30.537Z,100249.22
2022-11-30T02:11:32.724Z,100232.03
2022-11-30T02:13:00.336Z,100237.97
2022-11-30T02:14:27.117Z,100246.63
2022-11-30T02:15:38.010Z,100250.91
2022-11-30T02:17:04.613Z,100249.22
2022-11-30T02:18:31.327Z,100241.41
2022-11-30T02:20:07.870Z,100245.75
2022-11-30T02:21:38.748Z,100242.28
2022-11-30T02:23:23.137Z,100249.22
2022-11-30T02:24:51.690Z,100242.25
2022-11-30T02:26:14.231Z,100245.72
2022-11-30T02:27:58.576Z,100243.94
2022-11-30T02:29:27.869Z,100239.56
2022-11-30T02:30:34.594Z,100232.72
2022-11-30T02:31:59.893Z,100244.75
2022-11-30T02:33:11.415Z,100236.09
2022-11-30T02:34:17.633Z,100241.41
2022-11-30T02:35:22.878Z,100199.28
2022-11-30T02:36:27.337Z,100228.44
2022-11-30T02:37:32.800Z,100246.44
2022-11-30T02:38:34.818Z,100228.44
2022-11-30T02:39:36.883Z,100242.06
2022-11-30T02:40:40.329Z,100236.16
2022-11-30T02:41:42.218Z,100216.41
2022-11-30T02:42:44.949Z,100222.63
2022-11-30T02:43:46.891Z,100226.66
2022-11-30T02:44:52.377Z,100248.19
2022-11-30T02:46:14.571Z,100239.50
2022-11-30T02:47:34.522Z,100245.44
2022-11-30T02:48:46.762Z,100218.00
2022-11-30T02:50:02.087Z,100249.69
2022-11-30T02:51:08.578Z,100235.94
2022-11-30T02:52:13.940Z,100234.19
2022-11-30T02:53:16.683Z,100232.44
2022-11-30T02:54:19.340Z,100225.56
2022-11-30T02:55:22.503Z,100232.44
2022-11-30T02:56:26.118Z,100220.63
2022-11-30T02:57:27.870Z,100228.88
2022-11-30T02:58:29.832Z,100247.00
2022-11-30T02:59:33.764Z,100250.41
2022-11-30T03:00:37.226Z,100233.16
2022-11-30T03:01:40.008Z,100250.34
2022-11-30T03:02:42.111Z,100241.75
2022-11-30T03:03:44.981Z,100248.66
2022-11-30T03:04:46.754Z,100246.06
2022-11-30T03:05:49.014Z,100250.38
2022-11-30T03:06:51.142Z,100248.66
2022-11-30T03:07:54.715Z,100243.66
2022-11-30T03:08:56.431Z,100255.66
2022-11-30T03:09:58.385Z,100234.13
2022-11-30T03:11:05.817Z,100257.38
2022-11-30T03:12:07.832Z,100247.84
2022-11-30T03:13:10.048Z,100245.25
2022-11-30T03:14:12.549Z,100240.16
2022-11-30T03:15:17.745Z,100250.47
2022-11-30T03:16:19.869Z,100234.13
2022-11-30T03:17:21.987Z,100234.13
2022-11-30T03:18:26.962Z,100252.19
2022-11-30T03:19:30.286Z,100221.28
2022-11-30T03:20:33.829Z,100238.47
2022-11-30T03:21:36.825Z,100236.69
2022-11-30T03:22:38.856Z,100253.03
2022-11-30T03:23:41.274Z,100240.97
2022-11-30T03:24:43.172Z,100244.34
2022-11-30T03:25:46.717Z,100227.16
2022-11-30T03:26:50.198Z,100242.66
2022-11-30T03:27:54.136Z,100243.47
2022-11-30T03:28:56.136Z,100245.16
2022-11-30T03:30:00.093Z,100237.31
2022-11-30T03:31:02.411Z,100241.63
2022-11-30T03:32:05.341Z,100240.78
2022-11-30T03:33:06.977Z,100246.03
2022-11-30T03:34:09.309Z,100231.34
2022-11-30T03:35:11.857Z,100242.66
2022-11-30T03:36:13.690Z,100250.28
2022-11-30T03:37:16.358Z,100239.97
2022-11-30T03:38:18.820Z,100231.34
2022-11-30T03:39:24.521Z,100241.53
2022-11-30T03:40:27.173Z,100239.97
2022-11-30T03:41:29.464Z,100211.88
2022-11-30T03:42:31.391Z,100224.56
2022-11-30T03:43:37.318Z,100252.06
2022-11-30T03:44:39.868Z,100254.69
2022-11-30T03:45:45.795Z,100246.06
2022-11-30T03:46:48.134Z,100247.75
2022-11-30T03:47:52.183Z,100236.69
2022-11-30T03:48:55.538Z,100248.56
2022-11-30T03:49:57.495Z,100252.09
2022-11-30T03:51:00.072Z,100245.06
2022-11-30T03:52:03.317Z,100236.53
2022-11-30T03:53:05.346Z,100242.69
2022-11-30T03:54:07.258Z,100240.84
2022-11-30T03:55:09.595Z,100252.06
2022-11-30T03:56:15.779Z,100250.28
2022-11-30T03:57:18.153Z,100247.72
2022-11-30T03:58:32.193Z,100259.84
2022-11-30T03:59:34.352Z,100234.09
2022-11-30T04:00:37.142Z,100252.03
2022-11-30T04:01:41.578Z,100247.66
2022-11-30T04:02:45.048Z,100242.56
2022-11-30T04:03:47.215Z,100247.63
2022-11-30T04:04:49.415Z,100244.25
2022-11-30T04:05:52.231Z,100233.84
2022-11-30T04:06:57.486Z,100212.47
2022-11-30T04:08:03.628Z,100251.88
2022-11-30T04:09:06.869Z,100250.16
2022-11-30T04:10:09.660Z,100242.31
2022-11-30T04:11:13.751Z,100230.34
2022-11-30T04:12:15.788Z,100248.34
2022-11-30T04:13:18.032Z,100235.41
2022-11-30T04:14:20.191Z,100219.19
2022-11-30T04:15:22.908Z,100242.28
2022-11-30T04:16:28.629Z,100244.00
2022-11-30T04:17:31.013Z,100245.81
2022-11-30T04:18:34.941Z,100232.91
2022-11-30T04:19:37.050Z,100238.84
2022-11-30T04:20:40.574Z,100247.44
2022-11-30T04:21:42.846Z,100233.66
2022-11-30T04:22:44.454Z,100245.75
2022-11-30T04:23:46.457Z,100249.94
2022-11-30T04:24:48.923Z,100239.78
2022-11-30T04:25:52.209Z,100228.56
2022-11-30T04:26:54.030Z,100252.59
2022-11-30T04:27:56.951Z,100244.00
2022-11-30T04:29:04.152Z,100249.13
2022-11-30T04:30:08.513Z,100246.50
2022-11-30T04:31:11.199Z,100242.22
2022-11-30T04:32:13.071Z,100237.94
2022-11-30T04:33:17.302Z,100235.34
2022-11-30T04:34:21.878Z,100245.63
2022-11-30T04:35:24.564Z,100249.16
2022-11-30T04:36:28.722Z,100237.13
2022-11-30T04:37:30.968Z,100251.66
2022-11-30T04:38:33.646Z,100245.69
2022-11-30T04:39:35.712Z,100223.59
2022-11-30T04:40:42.006Z,100245.69
2022-11-30T04:41:43.967Z,100252.53
2022-11-30T04:42:45.894Z,100242.31
2022-11-30T04:43:48.839Z,100218.81
2022-11-30T04:44:57.761Z,100247.47
2022-11-30T04:45:59.741Z,100251.75
2022-11-30T04:47:01.400Z,100239.69
2022-11-30T04:48:04.205Z,100236.16
2022-11-30T04:49:07.438Z,100249.88
2022-11-30T04:50:09.758Z,100254.34
2022-11-30T04:51:11.500Z,100247.34
2022-11-30T04:52:13.201Z,100246.50
2022-11-30T04:53:16.229Z,100250.88
2022-11-30T04:54:18.641Z,100243.97
2022-11-30T04:55:24.756Z,100248.25
2022-11-30T04:56:27.368Z,100248.97
2022-11-30T04:57:33.609Z,100248.13
2022-11-30T04:58:40.354Z,100245.63
2022-11-30T04:59:42.566Z,100242.28
2022-11-30T05:00:45.567Z,100230.19
2022-11-30T05:01:47.320Z,100244.78
2022-11-30T05:02:53.430Z,100247.38
2022-11-30T05:04:00.309Z,100250.03
2022-11-30T05:05:03.262Z,100253.44
2022-11-30T05:06:05.637Z,100245.69
2022-11-30T05:07:08.045Z,100232.91
2022-11-30T05:08:10.855Z,100250.84
2022-11-30T05:09:14.536Z,100252.53
2022-11-30T05:10:19.105Z,100236.34
2022-11-30T05:11:22.856Z,100256.03
2022-11-30T05:12:27.062Z,100256.91
2022-11-30T05:13:32.078Z,100249.16
2022-11-30T05:14:34.836Z,100233.00
2022-11-30T05:15:37.592Z,100257.72
2022-11-30T05:16:41.775Z,100256.09
2022-11-30T05:17:43.802Z,100264.66
2022-11-30T05:18:48.055Z,100255.22
2022-11-30T05:19:50.160Z,100243.28
2022-11-30T05:20:53.824Z,100257.72
2022-11-30T05:21:55.984Z,100249.25
2022-11-30T05:22:59.766Z,100246.56
2022-11-30T05:24:01.809Z,100250.09
2022-11-30T05:25:07.104Z,100235.34
2022-11-30T05:26:09.355Z,100248.28
2022-11-30T05:27:16.581Z,100256.81
2022-11-30T05:28:22.693Z,100263.84
2022-11-30T05:29:26.256Z,100266.34
2022-11-30T05:30:29.520Z,100208.06
2022-11-30T05:31:32.122Z,100266.34
2022-11-30T05:32:34.273Z,100258.66
2022-11-30T05:33:36.876Z,100260.47
2022-11-30T05:34:50.505Z,100225.34
2022-11-30T05:35:53.780Z,100261.34
2022-11-30T05:36:55.908Z,100250.31
2022-11-30T05:37:58.226Z,100253.25
2022-11-30T05:38:59.845Z,100250.22
2022-11-30T05:40:02.396Z,100234.88
2022-11-30T05:41:06.974Z,100253.63
2022-11-30T05:42:09.558Z,100257.97
2022-11-30T05:43:13.460Z,100260.56
2022-11-30T05:44:15.954Z,100251.91
2022-11-30T05:45:20.721Z,100268.31
2022-11-30T05:46:22.733Z,100248.47
2022-11-30T05:47:24.446Z,100239.16
2022-11-30T05:48:29.484Z,100256.28
2022-11-30T05:49:32.314Z,100267.47
2022-11-30T05:50:34.160Z,100265.69
2022-11-30T05:51:36.393Z,100266.59
2022-11-30T05:52:40.119Z,100267.53
2022-11-30T05:53:45.556Z,100261.47
2022-11-30T05:54:48.188Z,100232.41
2022-11-30T05:55:51.705Z,100257.19
2022-11-30T05:56:55.224Z,100276.06
2022-11-30T05:57:57.862Z,100261.41
2022-11-30T05:59:00.042Z,100277.81
2022-11-30T06:00:03.019Z,100268.31
2022-11-30T06:01:10.993Z,100278.69
2022-11-30T06:02:16.749Z,100266.59
2022-11-30T06:03:19.343Z,100263.22
2022-11-30T06:04:22.400Z,100268.38
2022-11-30T06:05:27.292Z,100281.31
2022-11-30T06:06:30.556Z,100239.19
2022-11-30T06:07:33.545Z,100268.47
2022-11-30T06:08:35.387Z,100258.06
2022-11-30T06:09:37.365Z,100263.28
2022-11-30T06:10:39.112Z,100272.94
2022-11-30T06:11:42.250Z,100266.69
2022-11-30T06:12:46.121Z,100258.16
2022-11-30T06:13:49.223Z,100214.44
2022-11-30T06:14:51.521Z,100233.31
2022-11-30T06:15:53.199Z,100269.19
2022-11-30T06:16:55.442Z,100266.59
2022-11-30T06:17:59.382Z,100271.78
2022-11-30T06:19:02.203Z,100264.94
2022-11-30T06:20:09.024Z,100232.34
2022-11-30T06:21:12.120Z,100281.38
2022-11-30T06:22:14.214Z,100263.19
2022-11-30T06:23:16.163Z,100254.66
2022-11-30T06:24:18.520Z,100268.28
2022-11-30T06:25:21.135Z,100275.22
2022-11-30T06:26:25.337Z,100267.38
2022-11-30T06:27:32.496Z,100268.19
2022-11-30T06:28:36.447Z,100260.47
2022-11-30T06:29:39.035Z,100251.81
2022-11-30T06:30:48.982Z,100256.09
2022-11-30T06:31:54.057Z,100253.53
2022-11-30T06:32:56.946Z,100257.88
2022-11-30T06:33:59.864Z,100257.88
2022-11-30T06:35:04.770Z,100278.72
2022-11-30T06:36:06.875Z,100259.75
2022-11-30T06:37:09.115Z,100265.75
2022-11-30T06:38:13.679Z,100251.19
2022-11-30T06:39:16.498Z,100264.91
2022-11-30T06:40:18.637Z,100270.97
2022-11-30T06:41:23.956Z,100254.59
2022-11-30T06:42:25.812Z,100279.69
2022-11-30T06:43:28.979Z,100264.09
2022-11-30T06:44:30.975Z,100258.97
2022-11-30T06:45:33.049Z,100259.84
2022-11-30T06:46:35.740Z,100237.63
2022-11-30T06:47:39.729Z,100260.00
2022-11-30T06:48:43.750Z,100273.75
2022-11-30T06:49:45.854Z,100253.13
2022-11-30T06:50:50.184Z,100254.09
2022-11-30T06:51:52.775Z,100272.06
2022-11-30T06:52:59.581Z,100273.84
2022-11-30T06:54:02.554Z,100249.78
2022-11-30T06:55:06.902Z,100279.03
2022-11-30T06:56:11.040Z,100249.88
2022-11-30T06:57:12.876Z,100262.75
2022-11-30T06:58:14.578Z,100266.97
2022-11-30T06:59:16.672Z,100272.22
2022-11-30T07:00:19.282Z,100260.22
2022-11-30T07:01:22.709Z,100256.84
2022-11-30T07:02:24.778Z,100249.09
2022-11-30T07:03:26.612Z,100261.06
2022-11-30T07:04:29.165Z,100261.03
2022-11-30T07:05:35.643Z,100279.97
2022-11-30T07:06:40.918Z,100273.94
2022-11-30T07:07:43.124Z,100286.09
2022-11-30T07:08:46.507Z,100268.06
2022-11-30T07:09:52.632Z,100270.59
2022-11-30T07:10:55.252Z,100272.34
2022-11-30T07:12:00.697Z,100246.63
2022-11-30T07:13:05.166Z,100249.13
2022-11-30T07:14:08.226Z,100272.25
2022-11-30T07:15:10.526Z,100260.25
2022-11-30T07:16:18.667Z,100278.28
2022-11-30T07:17:20.625Z,100273.06
2022-11-30T07:18:25.895Z,100253.31
2022-11-30T07:19:35.045Z,100279.97
2022-11-30T07:20:39.585Z,100277.31
2022-11-30T07:21:41.484Z,100277.44
2022-11-30T07:22:44.856Z,100272.28
2022-11-30T07:24:06.661Z,100271.25
2022-11-30T07:25:31.120Z,100271.25
2022-11-30T07:26:34.127Z,100283.31
2022-11-30T07:27:37.719Z,100286.78
2022-11-30T07:28:46.319Z,100278.22
2022-11-30T07:29:49.681Z,100284.25
2022-11-30T07:30:51.628Z,100279.09
2022-11-30T07:31:56.109Z,100278.25
2022-11-30T07:32:58.546Z,100267.91
2022-11-30T07:34:06.947Z,100286.78
2022-11-30T07:35:11.256Z,100297.22
2022-11-30T07:36:18.769Z,100262.03
2022-11-30T07:37:23.223Z,100279.91
2022-11-30T07:38:24.984Z,100291.16
2022-11-30T07:39:27.895Z,100284.25
2022-11-30T07:40:31.842Z,100279.13
2022-11-30T07:41:34.367Z,100291.16
2022-11-30T07:42:37.145Z,100261.94
2022-11-30T07:43:41.352Z,100288.53
2022-11-30T07:44:47.208Z,100286.78
2022-11-30T07:45:53.487Z,100285.94
2022-11-30T07:46:56.712Z,100282.47
2022-11-30T07:48:01.815Z,100288.47
2022-11-30T07:49:04.320Z,100273.03
2022-11-30T07:50:08.190Z,100284.16
2022-11-30T07:51:21.831Z,100295.28
2022-11-30T07:52:24.162Z,100297.78
2022-11-30T07:53:26.310Z,100286.56
2022-11-30T07:54:31.055Z,100299.47
2022-11-30T07:55:33.671Z,100296.03
2022-11-30T07:56:35.415Z,100297.75
2022-11-30T07:57:38.488Z,100296.06
2022-11-30T07:58:41.837Z,100287.47
2022-11-30T07:59:44.949Z,100303.75
2022-11-30T08:00:46.958Z,100272.75
2022-11-30T08:01:50.551Z,100305.44
2022-11-30T08:02:54.725Z,100296.16
2022-11-30T08:03:57.747Z,100296.78
2022-11-30T08:05:00.288Z,100260.75
2022-11-30T08:06:10.456Z,100299.28
2022-11-30T08:07:12.493Z,100292.50
2022-11-30T08:08:14.299Z,100289.88
2022-11-30T08:09:20.961Z,100265.88
2022-11-30T08:10:24.377Z,100297.50
2022-11-30T08:11:29.814Z,100304.38
2022-11-30T08:12:31.792Z,100287.94
2022-11-30T08:13:34.373Z,100289.69
2022-11-30T08:14:56.447Z,100305.03
2022-11-30T08:16:26.438Z,100297.84
2022-11-30T08:17:28.983Z,100299.56
2022-11-30T08:18:31.607Z,100300.44
2022-11-30T08:19:35.169Z,100281.47
2022-11-30T08:20:38.082Z,100301.19
2022-11-30T08:21:40.917Z,100300.22
2022-11-30T08:22:43.269Z,100292.47
2022-11-30T08:23:48.746Z,100289.81
2022-11-30T08:24:51.678Z,100295.97
2022-11-30T08:25:54.137Z,100315.78
2022-11-30T08:26:55.806Z,100300.84
2022-11-30T08:27:57.609Z,100294.81
2022-11-30T08:29:02.050Z,100305.09
2022-11-30T08:30:08.378Z,100292.41
2022-11-30T08:31:35.873Z,100298.19
2022-11-30T08:32:38.483Z,100287.94
2022-11-30T08:33:41.281Z,100281.97
2022-11-30T08:34:44.407Z,100310.38
2022-11-30T08:35:49.208Z,100304.38
2022-11-30T08:36:52.352Z,100300.13
2022-11-30T08:37:54.400Z,100307.84
2022-11-30T08:38:59.846Z,100302.88
2022-11-30T08:40:02.457Z,100306.06
2022-11-30T08:41:06.715Z,100299.00
2022-11-30T08:42:11.142Z,100306.69
2022-11-30T08:43:14.235Z,100304.91
2022-11-30T08:44:16.706Z,100314.38
2022-11-30T08:45:18.345Z,100303.03
2022-11-30T08:47:46.557Z,100315.00
2022-11-30T08:48:49.917Z,100318.59
2022-11-30T08:49:56.779Z,100322.13
2022-11-30T08:51:05.178Z,100322.16
2022-11-30T08:52:17.037Z,100311.00
2022-11-30T08:53:21.583Z,100315.34
2022-11-30T08:54:26.421Z,100309.31
2022-11-30T08:55:28.521Z,100309.97
2022-11-30T08:56:30.492Z,100319.28
2022-11-30T08:57:33.501Z,100301.13
2022-11-30T08:58:37.752Z,100297.44
2022-11-30T08:59:41.189Z,100328.19
2022-11-30T09:00:43.431Z,100324.50
2022-11-30T09:02:00.214Z,100319.28
2022-11-30T09:03:03.168Z,100327.91
2022-11-30T09:04:05.297Z,100294.63
2022-11-30T09:05:08.578Z,100329.00
2022-11-30T09:06:13.396Z,100333.41
2022-11-30T09:07:15.444Z,100315.22
2022-11-30T09:08:17.399Z,100324.88
2022-11-30T09:09:20.437Z,100317.22
2022-11-30T09:10:22.187Z,100329.34
2022-11-30T09:11:41.650Z,100324.78
2022-11-30T09:12:47.094Z,100325.03
2022-11-30T09:13:51.177Z,100323.50
2022-11-30T09:14:57.970Z,100303.75
2022-11-30T09:16:00.707Z,100319.91
2022-11-30T09:17:04.233Z,100323.50
2022-11-30T09:18:09.533Z,100322.06
2022-11-30T09:19:14.240Z,100326.19
2022-11-30T09:20:16.706Z,100332.91
2022-11-30T09:21:22.911Z,100320.78
2022-11-30T09:22:28.443Z,100334.28
2022-11-30T09:23:32.031Z,100319.69
2022-11-30T09:24:33.760Z,100340.22
2022-11-30T09:25:35.429Z,100342.13
2022-11-30T09:26:38.203Z,100337.75
2022-11-30T09:27:41.366Z,100332.47
2022-11-30T09:28:43.865Z,100342.03
2022-11-30T09:29:46.507Z,100349.78
2022-11-30T09:30:48.659Z,100334.94
2022-11-30T09:31:50.704Z,100342.72
2022-11-30T09:32:52.396Z,100339.53
2022-11-30T09:33:56.999Z,100342.25
2022-11-30T09:34:59.439Z,100325.69
2022-11-30T09:36:04.526Z,100338.69
2022-11-30T09:37:06.477Z,100335.38
2022-11-30T09:38:08.686Z,100342.13
2022-11-30T09:39:13.130Z,100346.97
2022-11-30T09:40:17.765Z,100343.69
2022-11-30T09:41:29.018Z,100348.13
2022-11-30T09:42:59.124Z,100341.88
2022-11-30T09:44:12.176Z,100343.53
2022-11-30T09:45:23.072Z,100337.69
2022-11-30T09:46:31.983Z,100342.91
2022-11-30T09:48:06.213Z,100340.94
2022-11-30T09:49:19.634Z,100339.25
2022-11-30T09:50:25.146Z,100340.47
2022-11-30T09:51:35.771Z,100341.22
2022-11-30T09:52:42.333Z,100337.81
2022-11-30T09:53:49.412Z,100341.22
2022-11-30T09:54:53.803Z,100341.09
2022-11-30T09:55:58.146Z,100340.25
2022-11-30T09:57:01.753Z,100327.22
2022-11-30T09:58:06.477Z,100328.84
2022-11-30T09:59:30.464Z,100340.94
2022-11-30T10:00:35.547Z,100324.72
2022-11-30T10:01:39.562Z,100318.59
2022-11-30T10:02:44.914Z,100331.31
2022-11-30T10:03:48.810Z,100333.13
2022-11-30T10:04:51.449Z,100344.41
2022-11-30T10:06:03.825Z,100337.53
2022-11-30T10:07:10.858Z,100337.53
2022-11-30T10:08:32.379Z,100336.59
2022-11-30T10:09:40.200Z,100345.34
2022-11-30T10:11:19.252Z,100343.66
2022-11-30T10:12:31.423Z,100340.97
2022-11-30T10:14:09.766Z,100340.25
2022-11-30T10:15:43.093Z,100343.38
2022-11-30T10:16:45.601Z,100337.03
2022-11-30T10:17:55.451Z,100336.19
2022-11-30T10:19:31.673Z,100334.22
2022-11-30T10:21:02.831Z,100334.81
2022-11-30T10:22:27.723Z,100325.56
2022-11-30T10:24:10.819Z,100330.03
2022-11-30T10:25:29.558Z,100328.47
2022-11-30T10:26:39.599Z,100331.19
2022-11-30T10:27:52.153Z,100328.53
2022-11-30T10:29:00.847Z,100314.78
2022-11-30T10:30:02.759Z,100322.38
2022-11-30T10:31:05.715Z,100330.25
2022-11-30T10:32:22.223Z,100308.75
2022-11-30T10:33:35.309Z,100325.81
2022-11-30T10:34:41.991Z,100322.91
2022-11-30T10:35:50.790Z,100308.19
2022-11-30T10:36:54.946Z,100303.03
2022-11-30T10:38:00.644Z,100322.16
2022-11-30T10:39:11.809Z,100324.59
2022-11-30T10:40:38.408Z,100320.91
2022-11-30T10:42:00.279Z,100307.47
2022-11-30T10:43:17.126Z,100316.66
2022-11-30T10:44:24.690Z,100319.19
2022-11-30T10:45:29.305Z,100323.81
2022-11-30T10:46:42.560Z,100327.03
2022-11-30T10:47:58.983Z,100317.47
2022-11-30T10:49:10.728Z,100318.59
2022-11-30T10:50:15.853Z,100321.28
2022-11-30T10:51:19.911Z,100316.13
2022-11-30T10:52:49.410Z,100314.38
2022-11-30T10:53:51.212Z,100313.56
2022-11-30T10:55:00.575Z,100293.50
2022-11-30T10:56:08.847Z,100309.13
2022-11-30T10:57:10.934Z,100305.16
2022-11-30T10:58:21.390Z,100302.22
2022-11-30T10:59:25.802Z,100307.53
2022-11-30T11:00:28.579Z,100293.41
2022-11-30T11:01:41.073Z,100301.13
2022-11-30T11:02:46.162Z,100294.69
2022-11-30T11:03:48.071Z,100287.47
2022-11-30T11:05:18.967Z,100300.28
2022-11-30T11:06:25.447Z,100290.41
2022-11-30T11:07:30.845Z,100267.50
2022-11-30T11:08:33.524Z,100301.69
2022-11-30T11:09:52.850Z,100281.56
2022-11-30T11:10:55.870Z,100248.84
2022-11-30T11:12:04.627Z,100286.94
2022-11-30T11:13:16.866Z,100277.16
2022-11-30T11:14:21.994Z,100295.25
2022-11-30T11:15:29.827Z,100291.94
2022-11-30T11:16:50.405Z,100291.84
2022-11-30T11:17:53.076Z,100295.44
2022-11-30T11:18:59.062Z,100295.03
2022-11-30T11:20:01.174Z,100292.91
2022-11-30T11:21:15.833Z,100285.81
2022-11-30T11:22:27.181Z,100288.53
2022-11-30T11:23:45.852Z,100292.53
2022-11-30T11:24:50.870Z,100274.97
2022-11-30T11:25:53.395Z,100287.19
2022-11-30T11:26:57.392Z,100291.84
2022-11-30T11:28:11.973Z,100289.41
2022-11-30T11:29:31.750Z,100294.94
2022-11-30T11:30:36.251Z,100290.53
2022-11-30T11:31:44.488Z,100287.28
2022-11-30T11:33:19.761Z,100289.38
2022-11-30T11:34:38.036Z,100291.97
2022-11-30T11:35:47.512Z,100293.78
2022-11-30T11:37:26.551Z,100294.94
2022-11-30T11:38:46.654Z,100279.78
2022-11-30T11:40:17.605Z,100293.13
2022-11-30T11:41:29.345Z,100293.94
2022-11-30T11:42:37.286Z,100295.81
2022-11-30T11:44:04.669Z,100292.72
2022-11-30T11:45:15.428Z,100298.69
2022-11-30T11:46:17.491Z,100287.59
2022-11-30T11:47:38.401Z,100257.97
2022-11-30T11:48:46.160Z,100290.69
2022-11-30T11:49:51.002Z,100299.84
2022-11-30T11:51:08.879Z,100296.13
2022-11-30T11:52:11.372Z,100298.25
2022-11-30T11:53:26.117Z,100298.38
2022-11-30T11:54:33.632Z,100295.03
2022-11-30T11:55:36.824Z,100286.56
2022-11-30T11:56:38.864Z,100285.53
2022-11-30T11:57:51.334Z,100286.41
2022-11-30T11:59:00.837Z,100287.19
2022-11-30T12:00:16.425Z,100289.16
2022-11-30T12:01:59.172Z,100289.75
2022-11-30T12:03:04.254Z,100280.94
2022-11-30T12:04:17.209Z,100279.41
2022-11-30T12:05:32.839Z,100280.09
2022-11-30T12:06:37.389Z,100273.28
2022-11-30T12:07:50.663Z,100282.25
2022-11-30T12:09:01.376Z,100283.63
2022-11-30T12:11:57.309Z,100266.66
2022-11-30T12:12:59.888Z,100274.97
2022-11-30T12:14:05.711Z,100270.72
2022-11-30T12:15:15.117Z,100272.47
2022-11-30T12:16:24.510Z,100280.06
2022-11-30T12:17:58.967Z,100283.41
2022-11-30T12:19:23.283Z,100282.28
2022-11-30T12:20:46.521Z,100283.84
2022-11-30T12:22:16.433Z,100275.72
2022-11-30T12:23:42.778Z,100289.72
2022-11-30T12:25:18.001Z,100282.75
2022-11-30T12:26:22.430Z,100289.97
2022-11-30T12:27:52.084Z,100294.31
2022-11-30T12:29:22.788Z,100295.34
2022-11-30T12:30:32.441Z,100284.91
2022-11-30T12:31:56.921Z,100290.38
2022-11-30T12:33:07.748Z,100281.16
2022-11-30T12:34:28.605Z,100294.22
2022-11-30T12:36:13.093Z,100287.25
2022-11-30T12:37:50.323Z,100291.69
2022-11-30T12:39:01.173Z,100284.94
2022-11-30T12:40:21.161Z,100284.88
2022-11-30T12:41:39.991Z,100290.16
2022-11-30T12:42:52.311Z,100283.25
2022-11-30T12:44:10.810Z,100287.78